createdAt,value
2019-02-26T00:01:07.373Z,12.83
2019-02-26T00:06:11.054Z,12.93
2019-02-26T00:11:15.325Z,12.87
2019-02-26T00:16:20.561Z,15.07
2019-02-26T00:21:26.387Z,14.27
2019-02-26T00:26:30.299Z,12.63
2019-02-26T00:31:34.073Z,12.33
2019-02-26T00:36:38.248Z,12.40
2019-02-26T00:41:42.731Z,12.33
2019-02-26T00:46:47.179Z,11.70
2019-02-26T00:51:52.796Z,11.37
2019-02-26T00:56:59.004Z,12.90
2019-02-26T01:02:01.801Z,11.53
2019-02-26T01:07:07.566Z,11.97
2019-02-26T01:12:13.567Z,12.20
2019-02-26T01:17:18.702Z,11.50
2019-02-26T01:22:22.263Z,11.67
2019-02-26T01:27:25.959Z,11.83
2019-02-26T01:32:29.736Z,11.23
2019-02-26T01:37:36.127Z,11.10
2019-02-26T01:42:38.943Z,11.13
2019-02-26T01:47:45.275Z,10.97
2019-02-26T01:52:49.978Z,10.23
2019-02-26T01:57:53.574Z,10.33
2019-02-26T02:02:57.314Z,10.63
2019-02-26T02:08:01.324Z,10.90
2019-02-26T02:13:07.060Z,10.07
2019-02-26T02:18:10.713Z,10.80
2019-02-26T02:23:16.553Z,9.80
2019-02-26T02:28:23.625Z,10.60
2019-02-26T02:33:27.533Z,9.97
2019-02-26T02:38:31.433Z,10.83
2019-02-26T02:43:35.401Z,10.43
2019-02-26T02:48:39.184Z,10.30
2019-02-26T02:53:45.288Z,9.93
2019-02-26T02:58:51.398Z,10.53
2019-02-26T03:03:57.947Z,10.20
2019-02-26T03:08:59.989Z,10.73
2019-02-26T03:14:05.807Z,11.03
2019-02-26T03:19:09.690Z,10.07
2019-02-26T03:24:14.886Z,10.70
2019-02-26T03:29:18.537Z,11.43
2019-02-26T03:34:25.254Z,11.93
2019-02-26T03:39:27.898Z,11.40
2019-02-26T03:44:31.852Z,11.20
2019-02-26T03:49:35.552Z,11.03
2019-02-26T03:54:40.227Z,10.80
2019-02-26T03:59:45.075Z,11.07
2019-02-26T04:04:53.987Z,13.50
2019-02-26T04:09:55.924Z,11.13
2019-02-26T04:15:00.096Z,11.73
2019-02-26T04:20:05.730Z,11.27
2019-02-26T04:25:43.229Z,11.47
2019-02-26T04:31:03.291Z,11.27
2019-02-26T04:36:16.924Z,10.87
2019-02-26T04:41:49.907Z,11.87
2019-02-26T04:47:05.848Z,10.90
2019-02-26T04:52:11.080Z,10.57
2019-02-26T04:57:15.158Z,11.63
2019-02-26T05:02:18.914Z,10.47
2019-02-26T05:07:22.699Z,10.90
2019-02-26T05:12:30.329Z,14.33
2019-02-26T05:17:33.239Z,14.87
2019-02-26T05:22:38.018Z,13.23
2019-02-26T05:27:44.751Z,12.17
2019-02-26T05:32:47.412Z,13.67
2019-02-26T05:37:51.699Z,13.53
2019-02-26T05:42:56.079Z,14.53
2019-02-26T05:48:00.884Z,15.43
2019-02-26T05:53:07.073Z,12.33
2019-02-26T05:58:12.593Z,12.17
2019-02-26T06:03:18.537Z,12.77
2019-02-26T06:08:25.646Z,13.80
2019-02-26T06:13:29.129Z,12.77
2019-02-26T06:18:32.589Z,12.97
2019-02-26T06:23:38.826Z,13.17
2019-02-26T06:28:43.503Z,11.50
2019-02-26T06:33:47.807Z,12.80
2019-02-26T06:38:54.096Z,13.77
2019-02-26T06:44:01.298Z,13.70
2019-02-26T06:49:05.112Z,14.70
2019-02-26T06:54:09.254Z,12.53
2019-02-26T06:59:13.235Z,14.03
2019-02-26T07:04:17.216Z,14.77
2019-02-26T07:09:20.976Z,12.43
2019-02-26T07:14:26.811Z,12.80
2019-02-26T07:19:31.306Z,12.43
2019-02-26T07:24:35.731Z,12.43
2019-02-26T07:29:41.928Z,11.60
2019-02-26T07:34:47.250Z,13.47
2019-02-26T07:39:51.593Z,11.87
2019-02-26T07:44:55.456Z,12.60
2019-02-26T07:50:01.650Z,11.53
2019-02-26T07:55:06.331Z,10.90
2019-02-26T08:00:13.301Z,11.93
2019-02-26T08:05:19.274Z,12.30
2019-02-26T08:10:22.789Z,12.60
2019-02-26T08:15:27.860Z,11.83
2019-02-26T08:20:33.473Z,13.57
2019-02-26T08:25:37.380Z,12.60
2019-02-26T08:30:44.466Z,13.30
2019-02-26T08:35:46.637Z,13.60
2019-02-26T08:40:50.347Z,13.43
2019-02-26T08:45:54.050Z,14.23
2019-02-26T08:51:00.830Z,13.80
2019-02-26T08:56:04.024Z,14.17
2019-02-26T09:01:08.025Z,14.23
2019-02-26T09:06:13.622Z,14.20
2019-02-26T09:11:17.144Z,14.93
2019-02-26T09:16:22.177Z,15.07
2019-02-26T09:21:26.718Z,14.63
2019-02-26T09:26:30.728Z,14.90
2019-02-26T09:31:34.712Z,14.37
2019-02-26T09:36:38.431Z,14.90
2019-02-26T09:41:43.365Z,15.63
2019-02-26T09:46:47.821Z,15.83
2019-02-26T09:51:51.531Z,15.63
2019-02-26T09:56:55.256Z,15.10
2019-02-26T10:02:01.142Z,16.17
2019-02-26T10:07:06.747Z,15.98
2019-02-26T10:12:12.872Z,16.45
2019-02-26T10:17:17.237Z,15.70
2019-02-26T10:22:22.027Z,16.75
2019-02-26T10:27:28.438Z,16.07
2019-02-26T10:32:32.809Z,16.65
2019-02-26T10:37:43.655Z,16.57
2019-02-26T10:42:48.026Z,16.40
2019-02-26T10:47:54.357Z,17.00
2019-02-26T10:53:01.487Z,16.57
2019-02-26T10:58:07.049Z,16.65
2019-02-26T11:03:11.591Z,16.23
2019-02-26T11:08:14.196Z,16.27
2019-02-26T11:13:20.197Z,16.20
2019-02-26T11:18:23.716Z,15.18
2019-02-26T11:23:31.248Z,13.88
2019-02-26T11:28:38.050Z,14.40
2019-02-26T11:33:39.061Z,14.10
2019-02-26T11:38:44.500Z,13.72
2019-02-26T11:43:48.573Z,13.55
2019-02-26T11:48:53.283Z,12.53
2019-02-26T11:54:00.058Z,12.23
2019-02-26T11:59:06.567Z,11.63
2019-02-26T12:04:11.376Z,11.67
2019-02-26T12:09:16.155Z,10.70
2019-02-26T12:14:21.617Z,11.50
2019-02-26T12:19:26.543Z,11.67
2019-02-26T12:24:33.233Z,11.20
2019-02-26T12:29:36.609Z,10.90
2019-02-26T12:34:41.340Z,12.13
2019-02-26T12:39:47.454Z,11.20
2019-02-26T12:44:51.941Z,11.27
2019-02-26T12:49:56.730Z,11.43
2019-02-26T12:55:04.297Z,10.87
2019-02-26T13:00:10.781Z,11.53
2019-02-26T13:05:18.950Z,10.67
2019-02-26T13:10:21.524Z,10.93
2019-02-26T13:15:25.571Z,10.80
2019-02-26T13:20:29.294Z,10.20
2019-02-26T13:25:33.090Z,10.93
2019-02-26T13:30:37.117Z,9.67
2019-02-26T13:35:42.174Z,10.43
2019-02-26T13:40:46.753Z,9.43
2019-02-26T13:45:50.493Z,9.63
2019-02-26T13:50:54.231Z,10.03
2019-02-26T13:55:58.014Z,9.53
2019-02-26T14:01:01.792Z,9.77
2019-02-26T14:06:06.147Z,8.90
2019-02-26T14:11:09.857Z,10.00
2019-02-26T14:16:13.535Z,9.93
2019-02-26T14:21:17.655Z,9.53
2019-02-26T14:26:21.383Z,9.23
2019-02-26T14:31:25.249Z,8.80
2019-02-26T14:36:29.110Z,9.60
2019-02-26T14:41:32.830Z,9.30
2019-02-26T14:46:37.296Z,8.77
2019-02-26T14:51:41.087Z,9.97
2019-02-26T14:56:44.831Z,8.50
2019-02-26T15:01:48.860Z,10.47
2019-02-26T15:06:52.552Z,9.30
2019-02-26T15:11:56.357Z,9.73
2019-02-26T15:17:00.685Z,10.00
2019-02-26T15:22:04.449Z,9.60
2019-02-26T15:27:08.577Z,9.17
2019-02-26T15:32:12.267Z,10.57
2019-02-26T15:37:18.222Z,10.07
2019-02-26T15:42:22.008Z,9.80
2019-02-26T15:47:26.187Z,10.00
2019-02-26T15:52:30.268Z,9.90
2019-02-26T15:57:34.070Z,10.27
2019-02-26T16:02:37.849Z,10.70
2019-02-26T16:07:41.863Z,10.03
2019-02-26T16:12:45.775Z,10.33
2019-02-26T16:17:49.722Z,10.23
2019-02-26T16:22:53.758Z,10.37
2019-02-26T16:27:57.992Z,9.77
2019-02-26T16:33:01.778Z,11.00
2019-02-26T16:38:05.967Z,11.13
2019-02-26T16:43:09.918Z,14.53
2019-02-26T16:48:13.948Z,13.63
2019-02-26T16:53:18.301Z,10.43
2019-02-26T16:58:22.013Z,12.47
2019-02-26T17:03:25.909Z,13.07
2019-02-26T17:08:29.917Z,12.50
2019-02-26T17:13:34.267Z,14.17
2019-02-26T17:18:38.089Z,12.43
2019-02-26T17:23:41.907Z,15.17
2019-02-26T17:28:45.943Z,12.00
2019-02-26T17:33:50.289Z,12.90
2019-02-26T17:38:54.327Z,13.30
2019-02-26T17:43:59.516Z,16.30
2019-02-26T17:49:03.518Z,13.20
2019-02-26T17:54:07.815Z,13.90
2019-02-26T17:59:11.861Z,14.10
2019-02-26T18:04:15.585Z,15.07
2019-02-26T18:09:22.227Z,15.23
2019-02-26T18:14:25.930Z,14.83
2019-02-26T18:19:49.391Z,15.33
2019-02-26T18:24:47.525Z,16.97
2019-02-26T18:29:51.334Z,17.57
2019-02-26T18:35:14.303Z,20.43
2019-02-26T18:40:20.252Z,17.47
2019-02-26T18:45:28.004Z,15.83
2019-02-26T18:50:31.317Z,18.37
2019-02-26T18:55:35.012Z,15.40
2019-02-26T19:00:38.692Z,16.50
2019-02-26T19:05:42.612Z,16.00
2019-02-26T19:10:46.803Z,15.73
2019-02-26T19:15:50.524Z,17.60
2019-02-26T19:20:54.212Z,17.20
2019-02-26T19:25:58.266Z,27.80
2019-02-26T19:31:23.460Z,19.70
2019-02-26T19:36:27.562Z,17.20
2019-02-26T19:41:31.306Z,17.83
2019-02-26T19:46:35.107Z,21.57
2019-02-26T19:51:38.883Z,21.37
2019-02-26T19:56:42.868Z,18.07
2019-02-26T20:01:46.677Z,18.80
2019-02-26T20:06:50.478Z,17.60
2019-02-26T20:11:56.273Z,19.83
2019-02-26T20:17:14.424Z,18.47
2019-02-26T20:22:11.756Z,18.33
2019-02-26T20:27:15.850Z,17.73
2019-02-26T20:32:21.226Z,19.53
2019-02-26T20:37:25.276Z,17.77
2019-02-26T20:42:29.548Z,18.77
2019-02-26T20:47:33.762Z,17.43
2019-02-26T20:52:37.527Z,18.70
2019-02-26T20:57:41.626Z,19.33
2019-02-26T21:02:45.670Z,20.50
2019-02-26T21:07:49.774Z,19.40
2019-02-26T21:12:53.721Z,19.63
2019-02-26T21:17:58.022Z,21.03
2019-02-26T21:23:02.432Z,17.53
2019-02-26T21:28:06.142Z,18.43
2019-02-26T21:33:10.510Z,18.73
2019-02-26T21:38:14.232Z,21.23
2019-02-26T21:43:17.973Z,22.33
2019-02-26T21:48:22.252Z,21.67
2019-02-26T21:53:26.241Z,21.10
2019-02-26T21:58:29.933Z,23.40
2019-02-26T22:03:33.641Z,22.07
2019-02-26T22:08:38.630Z,19.53
2019-02-26T22:13:42.874Z,18.77
2019-02-26T22:18:46.913Z,18.03
2019-02-26T22:23:50.613Z,16.97
2019-02-26T22:28:54.355Z,18.10
2019-02-26T22:33:58.281Z,17.77
2019-02-26T22:39:02.361Z,16.30
2019-02-26T22:44:06.095Z,17.40
2019-02-26T22:49:09.888Z,16.60
2019-02-26T22:54:13.682Z,16.60
2019-02-26T22:59:17.461Z,19.07
2019-02-26T23:04:21.155Z,18.80
2019-02-26T23:09:27.768Z,17.93
2019-02-26T23:14:32.309Z,19.60
2019-02-26T23:19:36.679Z,19.30
2019-02-26T23:24:42.225Z,18.13
2019-02-26T23:29:46.280Z,17.40
2019-02-26T23:35:03.946Z,18.23
2019-02-26T23:40:08.512Z,16.70
2019-02-26T23:45:12.634Z,18.23
2019-02-26T23:50:16.532Z,17.03
2019-02-26T23:55:20.616Z,17.30
